PAKWPAFE

Guest
Details From PAKW - KLAWOCK
To PAFE - KAKE
Flight Number -
Tags generated
Created
Modified
Stats Distance 88 nm / 163 km
Max Altitude 5,000 ft / 1,524 m
Waypoints 3
Social Downloads 2
Likes 1
Share VATSIM

Download

Looking for another format? Having issues loading an existing format? Contact us
Advertisement - Login to hide

Notes

Basic altitude profile: - Ascent Rate: 500ft/min - Ascent Speed: 90kts - Cruise Altitude: 5000ft - Cruise Speed: 110kts - Descent Rate: 800ft/min - Descent Speed: 110kts

Route

PAKW TOKEE PAFE

ID Type Via Altitude Latitude Longitude Leg Dist Tot Dist Heading (true) Name
O PAKW APT - 0 ft / 0 m 55.57923˚ -133.07600˚ - 0 nm - KLAWOCK
TOKEE FIX - 5,000 ft / 1,524 m 55.91250˚ -133.37881˚ 22 nm 22 nm 333° / 333° -
O PAFE APT - 0 ft / 0 m 56.96136˚ -133.91026˚ 65 nm 87 nm 345° / 344° KAKE

Altitude Profile

Advertisement - Login to hide

PAKW

Details ICAO PAKW (KLW)
Name KLAWOCK
Region USA (Alaska)
Timezone Unknown (UTC+0.0)
Stats Elevation 80 ft / 24 m (AMSL)
Location 55.579232° -133.075997°
Runways 1
Magnetic Variation 18.549° E

METAR

PAKW 130053Z AUTO 06008KT 010V100 10SM -RA OVC050 07/06 A3023 RMK SLP238 P0006 T00720061 TSNO VIA AUTODIAL

Decode

TAF

TAF AMD PAKW 122340Z 1300/1324 VRB03KT 6SM -RA BR FEW025 OVC035 TEMPO 1300/1302 01007G14KT FM130200 06005KT 4SM -RA BR OVC015 FM130800 06008KT 6SM -RA BR SCT015 OVC040 FM131700 06004KT P6SM -RA SCT015 OVC040 AMD LTD TO CLD VIS AND WIND

Decode

Departure Runways

ID Width Length Bearing (true) Bearing (mag) Surface Threshold Offset Overrun Length
02 100 ft / 30 m 4,991 ft / 1,521 m 39.06° 20.51° Asphalt 0 ft / 0 m 0 ft / 0 m
20 100 ft / 30 m 4,991 ft / 1,521 m 219.07° 200.52° Asphalt 0 ft / 0 m 0 ft / 0 m

PAFE

Details ICAO PAFE (AFE)
Name KAKE
Region USA (Alaska)
Timezone America/Juneau (UTC-9.0)
Stats Elevation 172 ft / 52 m (AMSL)
Location 56.961362° -133.910261°
Runways 1
Magnetic Variation 18.851° E

METAR

PAFE 130056Z AUTO 09006KT 10SM 07/06 A3028 RMK AO2 SLP268 T00720061 $

Decode

TAF

Not found

Destination Runways

ID Width Length Bearing (true) Bearing (mag) Surface Threshold Offset Overrun Length
10 100 ft / 30 m 3,990 ft / 1,216 m 129.93° 111.08° Asphalt 0 ft / 0 m 295 ft / 90 m
28 100 ft / 30 m 3,990 ft / 1,216 m 309.94° 291.09° Asphalt 1,000 ft / 305 m 295 ft / 90 m

Popular Alternatives